createdAt,value
2019-03-25T00:01:51.485Z,6.56
2019-03-25T00:04:19.953Z,6.59
2019-03-25T00:06:48.531Z,6.58
2019-03-25T00:09:16.701Z,6.54
2019-03-25T00:11:45.215Z,6.52
2019-03-25T00:14:13.134Z,6.50
2019-03-25T00:16:42.252Z,6.56
2019-03-25T00:19:10.702Z,6.46
2019-03-25T00:21:38.460Z,6.35
2019-03-25T00:24:08.219Z,6.22
2019-03-25T00:26:36.293Z,6.06
2019-03-25T00:29:04.848Z,6.04
2019-03-25T00:31:32.925Z,6.18
2019-03-25T00:34:01.081Z,6.34
2019-03-25T00:36:29.604Z,6.47
2019-03-25T00:38:57.726Z,6.48
2019-03-25T00:41:25.487Z,6.56
2019-03-25T00:43:53.252Z,6.64
2019-03-25T00:46:21.572Z,6.63
2019-03-25T00:48:50.057Z,6.73
2019-03-25T00:51:17.868Z,6.74
2019-03-25T00:53:46.018Z,6.71
2019-03-25T00:56:14.532Z,6.67
2019-03-25T00:58:44.109Z,6.64
2019-03-25T01:01:13.192Z,6.51
2019-03-25T01:03:41.136Z,6.34
2019-03-25T01:06:09.444Z,6.24
2019-03-25T01:08:37.769Z,6.16
2019-03-25T01:11:05.855Z,5.99
2019-03-25T01:13:34.720Z,5.90
2019-03-25T01:16:02.945Z,6.14
2019-03-25T01:18:31.376Z,6.29
2019-03-25T01:20:59.781Z,6.38
2019-03-25T01:23:28.335Z,6.42
2019-03-25T01:25:56.780Z,6.45
2019-03-25T01:28:24.822Z,6.39
2019-03-25T01:30:52.973Z,6.29
2019-03-25T01:33:21.795Z,6.26
2019-03-25T01:35:50.756Z,6.29
2019-03-25T01:38:18.732Z,6.36
2019-03-25T01:40:46.680Z,6.37
2019-03-25T01:43:15.046Z,6.33
2019-03-25T01:45:44.072Z,6.30
2019-03-25T01:48:12.556Z,6.26
2019-03-25T01:50:42.130Z,6.33
2019-03-25T01:53:12.544Z,6.40
2019-03-25T01:55:40.360Z,6.26
2019-03-25T01:58:08.247Z,6.23
2019-03-25T02:00:38.699Z,6.23
2019-03-25T02:03:08.557Z,6.15
2019-03-25T02:05:37.138Z,5.92
2019-03-25T02:08:05.111Z,5.88
2019-03-25T02:10:33.214Z,6.06
2019-03-25T02:13:01.421Z,6.07
2019-03-25T02:15:29.542Z,6.05
2019-03-25T02:17:57.423Z,6.12
2019-03-25T02:20:26.983Z,6.01
2019-03-25T02:22:55.503Z,6.10
2019-03-25T02:25:25.545Z,6.02
2019-03-25T02:27:53.456Z,5.99
2019-03-25T02:30:22.365Z,5.95
2019-03-25T02:32:50.547Z,5.84
2019-03-25T02:35:18.700Z,5.89
2019-03-25T02:37:46.678Z,5.93
2019-03-25T02:40:15.131Z,6.04
2019-03-25T02:42:43.342Z,6.13
2019-03-25T02:45:11.398Z,6.20
2019-03-25T02:47:39.573Z,6.25
2019-03-25T02:50:07.731Z,6.33
2019-03-25T02:52:37.536Z,6.41
2019-03-25T02:55:06.119Z,6.41
2019-03-25T02:57:34.210Z,6.40
2019-03-25T03:00:03.762Z,6.32
2019-03-25T03:02:32.194Z,6.25
2019-03-25T03:05:00.970Z,6.16
2019-03-25T03:07:29.828Z,6.08
2019-03-25T03:09:58.050Z,5.91
2019-03-25T03:12:27.935Z,5.78
2019-03-25T03:14:56.431Z,5.69
2019-03-25T03:17:27.035Z,5.67
2019-03-25T03:19:55.491Z,5.86
2019-03-25T03:22:23.856Z,5.96
2019-03-25T03:24:51.871Z,5.91
2019-03-25T03:27:21.020Z,5.94
2019-03-25T03:29:48.792Z,5.92
2019-03-25T03:32:16.861Z,5.79
2019-03-25T03:34:45.824Z,5.68
2019-03-25T03:37:13.837Z,5.76
2019-03-25T03:39:41.594Z,5.67
2019-03-25T03:42:10.510Z,5.66
2019-03-25T03:44:39.114Z,5.62
2019-03-25T03:47:06.955Z,5.64
2019-03-25T03:49:35.066Z,5.67
2019-03-25T03:52:03.764Z,5.70
2019-03-25T03:54:32.024Z,5.86
2019-03-25T03:57:00.918Z,5.90
2019-03-25T03:59:30.102Z,6.07
2019-03-25T04:01:58.719Z,6.06
2019-03-25T04:04:27.086Z,6.11
2019-03-25T04:06:56.424Z,6.19
2019-03-25T04:09:24.447Z,6.23
2019-03-25T04:11:52.824Z,6.30
2019-03-25T04:14:26.633Z,6.35
2019-03-25T04:16:55.166Z,6.35
2019-03-25T04:19:23.200Z,6.30
2019-03-25T04:21:52.241Z,6.30
2019-03-25T04:24:21.097Z,6.33
2019-03-25T04:26:49.251Z,6.32
2019-03-25T04:29:20.027Z,6.36
2019-03-25T04:31:47.552Z,6.35
2019-03-25T04:34:21.941Z,6.30
2019-03-25T04:36:50.859Z,6.27
2019-03-25T04:39:18.862Z,6.33
2019-03-25T04:41:47.064Z,6.36
2019-03-25T04:44:15.055Z,6.32
2019-03-25T04:46:43.424Z,6.35
2019-03-25T04:49:12.121Z,6.30
2019-03-25T04:51:40.160Z,6.31
2019-03-25T04:54:10.332Z,6.30
2019-03-25T04:56:39.790Z,6.31
2019-03-25T04:59:08.265Z,6.29
2019-03-25T05:01:36.241Z,6.36
2019-03-25T05:04:05.267Z,6.38
2019-03-25T05:06:33.051Z,6.33
2019-03-25T05:09:02.121Z,6.33
2019-03-25T05:11:31.081Z,6.36
2019-03-25T05:13:59.293Z,6.35
2019-03-25T05:16:27.218Z,6.35
2019-03-25T05:18:57.997Z,6.37
2019-03-25T05:21:26.241Z,6.37
2019-03-25T05:23:54.111Z,6.39
2019-03-25T05:26:22.159Z,6.39
2019-03-25T05:28:50.980Z,6.42
2019-03-25T05:31:18.949Z,6.38
2019-03-25T05:33:47.787Z,6.44
2019-03-25T05:36:15.687Z,6.38
2019-03-25T05:38:44.597Z,6.40
2019-03-25T05:41:12.939Z,6.42
2019-03-25T05:43:41.053Z,6.43
2019-03-25T05:46:09.233Z,6.49
2019-03-25T05:48:38.826Z,6.50
2019-03-25T05:51:06.556Z,6.49
2019-03-25T05:53:36.555Z,6.49
2019-03-25T05:56:04.606Z,6.51
2019-03-25T05:58:33.436Z,6.51
2019-03-25T06:01:01.594Z,6.46
2019-03-25T06:03:30.628Z,6.39
2019-03-25T06:06:01.352Z,6.33
2019-03-25T06:08:28.748Z,6.28
2019-03-25T06:10:56.467Z,6.27
2019-03-25T06:13:24.673Z,6.27
2019-03-25T06:15:54.057Z,6.28
2019-03-25T06:18:22.230Z,6.35
2019-03-25T06:20:50.682Z,6.26
2019-03-25T06:23:19.319Z,6.20
2019-03-25T06:25:47.357Z,6.20
2019-03-25T06:28:15.107Z,6.18
2019-03-25T06:30:43.968Z,6.15
2019-03-25T06:33:13.025Z,6.09
2019-03-25T06:35:41.067Z,6.00
2019-03-25T06:38:10.491Z,6.06
2019-03-25T06:40:38.356Z,5.96
2019-03-25T06:43:06.616Z,6.01
2019-03-25T06:45:34.987Z,6.01
2019-03-25T06:48:04.055Z,5.93
2019-03-25T06:50:33.559Z,5.78
2019-03-25T06:53:01.637Z,5.78
2019-03-25T06:55:29.385Z,5.75
2019-03-25T06:57:57.979Z,5.85
2019-03-25T07:00:25.821Z,5.74
2019-03-25T07:02:53.543Z,5.64
2019-03-25T07:05:21.861Z,5.57
2019-03-25T07:07:49.794Z,5.60
2019-03-25T07:10:29.838Z,5.88
2019-03-25T07:12:58.406Z,6.20
2019-03-25T07:15:28.088Z,6.36
2019-03-25T07:17:56.209Z,6.57
2019-03-25T07:20:24.636Z,6.40
2019-03-25T07:22:52.756Z,6.33
2019-03-25T07:25:21.457Z,6.57
2019-03-25T07:27:49.499Z,6.54
2019-03-25T07:30:18.574Z,6.72
2019-03-25T07:32:47.072Z,6.69
2019-03-25T07:35:15.164Z,6.65
2019-03-25T07:37:43.012Z,6.71
2019-03-25T07:40:11.619Z,6.85
2019-03-25T07:42:42.804Z,7.20
2019-03-25T07:45:10.875Z,7.24
2019-03-25T07:47:38.899Z,7.19
2019-03-25T07:50:06.893Z,7.51
2019-03-25T07:52:35.040Z,7.69
2019-03-25T07:55:03.457Z,7.52
2019-03-25T07:57:32.624Z,7.48
2019-03-25T08:00:00.714Z,7.62
2019-03-25T08:02:29.707Z,7.20
2019-03-25T08:04:57.880Z,7.55
2019-03-25T08:07:26.430Z,7.51
2019-03-25T08:09:54.735Z,7.17
2019-03-25T08:12:24.211Z,7.31
2019-03-25T08:14:52.617Z,7.54
2019-03-25T08:17:21.850Z,7.68
2019-03-25T08:19:50.482Z,7.80
2019-03-25T08:22:21.511Z,8.33
2019-03-25T08:24:49.725Z,8.26
2019-03-25T08:27:18.541Z,8.64
2019-03-25T08:29:46.326Z,8.49
2019-03-25T08:32:14.604Z,8.47
2019-03-25T08:34:43.346Z,8.85
2019-03-25T08:37:11.333Z,8.50
2019-03-25T08:39:40.471Z,8.57
2019-03-25T08:42:08.340Z,8.53
2019-03-25T08:44:36.478Z,8.54
2019-03-25T08:47:05.166Z,9.08
2019-03-25T08:49:33.043Z,8.86
2019-03-25T08:52:01.129Z,9.18
2019-03-25T08:54:29.207Z,9.07
2019-03-25T08:56:57.052Z,9.32
2019-03-25T08:59:26.168Z,9.37
2019-03-25T09:01:57.566Z,9.36
2019-03-25T09:04:26.876Z,8.81
2019-03-25T09:06:56.150Z,9.14
2019-03-25T09:09:23.951Z,8.35
2019-03-25T09:11:52.028Z,8.31
2019-03-25T09:14:22.153Z,8.78
2019-03-25T09:16:51.592Z,9.04
2019-03-25T09:19:20.531Z,8.62
2019-03-25T09:21:51.191Z,8.87
2019-03-25T09:24:19.447Z,9.11
2019-03-25T09:26:47.836Z,9.07
2019-03-25T09:29:16.287Z,8.31
2019-03-25T09:31:44.052Z,8.14
2019-03-25T09:34:13.815Z,7.97
2019-03-25T09:36:41.712Z,7.83
2019-03-25T09:39:09.456Z,7.69
2019-03-25T09:41:37.910Z,8.54
2019-03-25T09:44:05.916Z,8.18
2019-03-25T09:46:33.953Z,9.02
2019-03-25T09:49:02.035Z,9.18
2019-03-25T09:51:30.380Z,9.38
2019-03-25T09:53:58.864Z,8.82
2019-03-25T09:56:26.957Z,8.80
2019-03-25T09:58:55.953Z,9.04
2019-03-25T10:01:24.799Z,9.02
2019-03-25T10:03:52.787Z,8.67
2019-03-25T10:06:21.402Z,9.27
2019-03-25T10:08:49.704Z,9.22
2019-03-25T10:11:17.466Z,9.19
2019-03-25T10:13:47.086Z,9.64
2019-03-25T10:16:15.250Z,9.98
2019-03-25T10:18:43.027Z,10.04
2019-03-25T10:21:10.927Z,9.86
2019-03-25T10:23:38.981Z,9.43
2019-03-25T10:26:07.747Z,9.49
2019-03-25T10:28:47.532Z,9.10
2019-03-25T10:31:06.723Z,9.18
2019-03-25T10:33:34.782Z,9.52
2019-03-25T10:36:03.696Z,9.71
2019-03-25T10:38:31.446Z,10.27
2019-03-25T10:40:59.522Z,9.84
2019-03-25T10:43:27.873Z,10.01
2019-03-25T10:45:57.186Z,9.89
2019-03-25T10:48:25.559Z,10.25
2019-03-25T10:50:53.334Z,10.14
2019-03-25T10:53:21.815Z,10.75
2019-03-25T10:55:51.245Z,11.40
2019-03-25T10:58:19.347Z,11.40
2019-03-25T11:00:48.945Z,10.74
2019-03-25T11:03:17.362Z,10.55
2019-03-25T11:05:47.505Z,10.36
2019-03-25T11:08:15.261Z,10.83
2019-03-25T11:10:44.267Z,11.13
2019-03-25T11:13:12.296Z,11.91
2019-03-25T11:15:40.254Z,12.17
2019-03-25T11:18:08.780Z,12.37
2019-03-25T11:20:36.904Z,11.21
2019-03-25T11:23:05.118Z,12.56
2019-03-25T11:25:32.997Z,11.84
2019-03-25T11:28:01.587Z,10.35
2019-03-25T11:30:50.324Z,10.46
2019-03-25T11:33:18.262Z,9.97
2019-03-25T11:35:46.341Z,10.79
2019-03-25T11:38:15.933Z,10.93
2019-03-25T11:40:43.682Z,11.61
2019-03-25T11:43:12.247Z,11.20
2019-03-25T11:45:41.151Z,11.39
2019-03-25T11:48:10.102Z,11.22
2019-03-25T11:50:39.353Z,10.90
2019-03-25T11:53:07.564Z,10.53
2019-03-25T11:55:35.756Z,10.27
2019-03-25T11:58:03.711Z,9.81
2019-03-25T12:00:31.861Z,9.29
2019-03-25T12:02:59.696Z,9.06
2019-03-25T12:05:28.025Z,9.13
2019-03-25T12:07:56.358Z,9.10
2019-03-25T12:10:26.331Z,9.10
2019-03-25T12:12:54.116Z,9.75
2019-03-25T12:15:22.700Z,10.47
2019-03-25T12:17:51.583Z,10.54
2019-03-25T12:20:19.579Z,11.27
2019-03-25T12:22:47.755Z,10.32
2019-03-25T12:25:15.763Z,9.82
2019-03-25T12:27:43.910Z,9.81
2019-03-25T12:30:12.121Z,9.82
2019-03-25T12:32:39.853Z,9.67
2019-03-25T12:35:08.385Z,9.15
2019-03-25T12:37:37.772Z,9.58
2019-03-25T12:40:07.832Z,9.77
2019-03-25T12:42:36.557Z,9.18
2019-03-25T12:45:05.822Z,8.98
2019-03-25T12:47:33.997Z,9.07
2019-03-25T12:50:02.086Z,9.55
2019-03-25T12:52:30.533Z,9.50
2019-03-25T12:54:58.948Z,10.30
2019-03-25T12:57:27.945Z,10.15
2019-03-25T12:59:57.034Z,10.08
2019-03-25T13:02:25.547Z,9.30
2019-03-25T13:04:55.088Z,9.38
2019-03-25T13:07:22.865Z,8.83
2019-03-25T13:09:51.673Z,8.26
2019-03-25T13:12:20.999Z,8.32
2019-03-25T13:14:49.620Z,7.74
2019-03-25T13:17:19.363Z,7.38
2019-03-25T13:19:48.365Z,7.28
2019-03-25T13:22:16.383Z,7.07
2019-03-25T13:24:44.422Z,7.68
2019-03-25T13:27:12.941Z,8.50
2019-03-25T13:29:51.794Z,8.91
2019-03-25T13:32:12.210Z,9.30
2019-03-25T13:34:40.074Z,9.53
2019-03-25T13:37:08.283Z,9.92
2019-03-25T13:39:37.136Z,9.56
2019-03-25T13:42:05.116Z,9.93
2019-03-25T13:44:33.702Z,10.74
2019-03-25T13:47:03.174Z,10.95
2019-03-25T13:49:31.283Z,9.79
2019-03-25T13:51:59.849Z,7.18
2019-03-25T13:54:28.412Z,4.97
2019-03-25T13:56:57.712Z,4.16
2019-03-25T13:59:27.514Z,3.77
2019-03-25T14:01:55.860Z,3.72
2019-03-25T14:04:23.793Z,3.54
2019-03-25T14:06:52.048Z,3.44
2019-03-25T14:09:21.046Z,3.35
2019-03-25T14:11:49.931Z,3.20
2019-03-25T14:14:17.791Z,2.92
2019-03-25T14:16:46.316Z,2.45
2019-03-25T14:19:15.002Z,2.40
2019-03-25T14:21:43.556Z,2.35
2019-03-25T14:24:11.679Z,2.33
2019-03-25T14:26:39.933Z,2.60
2019-03-25T14:29:10.579Z,3.36
2019-03-25T14:31:38.341Z,3.88
2019-03-25T14:34:06.296Z,4.03
2019-03-25T14:36:35.330Z,4.23
2019-03-25T14:39:05.210Z,4.57
2019-03-25T14:41:38.087Z,4.35
2019-03-25T14:44:06.218Z,4.62
2019-03-25T14:46:34.117Z,4.83
2019-03-25T14:49:01.872Z,4.74
2019-03-25T14:51:30.572Z,4.49
2019-03-25T14:53:59.622Z,4.59
2019-03-25T14:56:28.701Z,4.72
2019-03-25T14:58:57.377Z,4.79
2019-03-25T15:01:25.259Z,4.80
2019-03-25T15:03:53.754Z,4.59
2019-03-25T15:06:24.536Z,4.54
2019-03-25T15:08:52.321Z,4.37
2019-03-25T15:11:21.464Z,4.35
2019-03-25T15:13:49.193Z,4.36
2019-03-25T15:16:17.510Z,4.46
2019-03-25T15:18:45.560Z,4.53
2019-03-25T15:21:13.824Z,4.62
2019-03-25T15:23:43.239Z,4.67
2019-03-25T15:26:11.960Z,4.72
2019-03-25T15:28:39.708Z,4.72
2019-03-25T15:31:08.180Z,4.82
2019-03-25T15:33:38.562Z,5.37
2019-03-25T15:36:08.558Z,5.71
2019-03-25T15:38:37.789Z,6.08
2019-03-25T15:41:05.982Z,6.60
2019-03-25T15:43:34.105Z,6.47
2019-03-25T15:46:02.390Z,6.44
2019-03-25T15:48:31.717Z,6.42
2019-03-25T15:50:59.611Z,6.29
2019-03-25T15:53:28.843Z,6.06
2019-03-25T15:55:56.683Z,5.64
2019-03-25T15:58:26.207Z,5.11
2019-03-25T16:00:54.581Z,4.83
2019-03-25T16:03:23.304Z,4.63
2019-03-25T16:05:51.430Z,4.46
2019-03-25T16:08:20.030Z,4.33
2019-03-25T16:10:48.182Z,4.09
2019-03-25T16:13:16.525Z,3.95
2019-03-25T16:15:46.995Z,3.80
2019-03-25T16:18:34.749Z,3.79
2019-03-25T16:21:03.230Z,3.76
2019-03-25T16:23:31.006Z,3.74
2019-03-25T16:25:59.122Z,3.79
2019-03-25T16:28:26.940Z,3.81
2019-03-25T16:30:58.958Z,3.74
2019-03-25T16:33:28.214Z,3.57
2019-03-25T16:35:56.796Z,3.64
2019-03-25T16:38:25.672Z,3.73
2019-03-25T16:40:54.484Z,3.61
2019-03-25T16:43:23.194Z,3.11
2019-03-25T16:45:51.123Z,2.59
2019-03-25T16:48:19.547Z,2.08
2019-03-25T16:50:49.307Z,2.27
2019-03-25T16:53:17.285Z,2.46
2019-03-25T16:55:46.740Z,2.56
2019-03-25T16:58:14.581Z,2.81
2019-03-25T17:00:42.663Z,2.78
2019-03-25T17:03:11.131Z,2.70
2019-03-25T17:05:39.261Z,2.72
2019-03-25T17:08:07.480Z,2.67
2019-03-25T17:10:35.556Z,2.67
2019-03-25T17:13:03.629Z,2.63
2019-03-25T17:15:31.885Z,2.43
2019-03-25T17:18:00.020Z,2.41
2019-03-25T17:20:27.942Z,2.21
2019-03-25T17:22:56.336Z,2.14
2019-03-25T17:25:24.559Z,2.06
2019-03-25T17:27:52.644Z,2.06
2019-03-25T17:30:21.546Z,2.02
2019-03-25T17:32:49.995Z,1.91
2019-03-25T17:35:18.210Z,1.83
2019-03-25T17:37:48.896Z,1.82
2019-03-25T17:40:16.621Z,1.75
2019-03-25T17:42:44.610Z,1.70
2019-03-25T17:45:13.330Z,1.83
2019-03-25T17:47:42.261Z,2.04
2019-03-25T17:50:17.482Z,2.24
2019-03-25T17:52:45.917Z,2.54
2019-03-25T17:55:13.802Z,2.83
2019-03-25T17:57:41.962Z,3.11
2019-03-25T18:00:11.226Z,3.19
2019-03-25T18:02:39.021Z,3.25
2019-03-25T18:05:08.672Z,3.15
2019-03-25T18:07:38.100Z,2.92
2019-03-25T18:10:07.875Z,2.52
2019-03-25T18:12:39.014Z,2.30
2019-03-25T18:15:09.587Z,2.28
2019-03-25T18:17:38.799Z,2.20
2019-03-25T18:20:18.041Z,2.16
2019-03-25T18:22:40.202Z,2.15
2019-03-25T18:25:09.586Z,2.12
2019-03-25T18:27:38.129Z,2.03
2019-03-25T18:30:08.184Z,1.81
2019-03-25T18:32:37.192Z,1.76
2019-03-25T18:35:05.225Z,1.73
2019-03-25T18:37:33.689Z,1.72
2019-03-25T18:40:02.293Z,1.69
2019-03-25T18:42:30.426Z,1.61
2019-03-25T18:45:02.220Z,1.54
2019-03-25T18:47:33.205Z,1.55
2019-03-25T18:50:02.089Z,1.45
2019-03-25T18:52:29.958Z,1.38
2019-03-25T18:54:58.946Z,1.40
2019-03-25T18:57:29.476Z,1.41
2019-03-25T19:00:03.464Z,1.45
2019-03-25T19:02:31.539Z,1.48
2019-03-25T19:05:01.323Z,1.56
2019-03-25T19:07:29.851Z,1.56
2019-03-25T19:09:58.398Z,1.63
2019-03-25T19:12:27.997Z,1.63
2019-03-25T19:14:55.940Z,1.63
2019-03-25T19:17:24.331Z,1.64
2019-03-25T19:19:52.405Z,1.64
2019-03-25T19:22:22.767Z,1.59
2019-03-25T19:24:51.495Z,1.45
2019-03-25T19:27:20.908Z,1.38
2019-03-25T19:29:51.870Z,1.26
2019-03-25T19:32:20.774Z,1.21
2019-03-25T19:34:49.430Z,1.13
2019-03-25T19:37:17.863Z,0.97
2019-03-25T19:39:46.964Z,0.91
2019-03-25T19:42:15.252Z,1.09
2019-03-25T19:44:43.904Z,1.23
2019-03-25T19:47:12.474Z,1.30
2019-03-25T19:49:41.683Z,1.40
2019-03-25T19:52:09.803Z,1.44
2019-03-25T19:54:38.374Z,1.56
2019-03-25T19:57:06.223Z,1.59
2019-03-25T19:59:35.204Z,1.65
2019-03-25T20:02:03.963Z,1.66
2019-03-25T20:04:31.966Z,1.64
2019-03-25T20:06:59.792Z,1.62
2019-03-25T20:09:28.434Z,1.72
2019-03-25T20:11:56.520Z,1.72
2019-03-25T20:14:25.384Z,1.70
2019-03-25T20:16:53.490Z,1.66
2019-03-25T20:19:22.807Z,1.60
2019-03-25T20:21:51.401Z,1.65
2019-03-25T20:24:20.553Z,1.66
2019-03-25T20:26:50.298Z,1.54
2019-03-25T20:29:19.146Z,1.55
2019-03-25T20:31:47.172Z,1.55
2019-03-25T20:34:15.236Z,1.64
2019-03-25T20:36:44.608Z,1.57
2019-03-25T20:39:13.257Z,1.55
2019-03-25T20:41:42.469Z,1.59
2019-03-25T20:44:11.430Z,1.61
2019-03-25T20:46:39.997Z,1.65
2019-03-25T20:49:08.308Z,1.64
2019-03-25T20:51:36.593Z,1.65
2019-03-25T20:54:05.538Z,1.77
2019-03-25T20:56:35.741Z,1.81
2019-03-25T20:59:04.777Z,1.84
2019-03-25T21:01:32.922Z,1.93
2019-03-25T21:04:01.647Z,1.92
2019-03-25T21:06:30.463Z,1.96
2019-03-25T21:08:58.456Z,2.00
2019-03-25T21:11:26.656Z,2.00
2019-03-25T21:13:54.754Z,2.03
2019-03-25T21:16:22.860Z,2.07
2019-03-25T21:18:52.481Z,2.04
2019-03-25T21:21:21.506Z,2.09
2019-03-25T21:23:52.352Z,2.09
2019-03-25T21:26:20.631Z,2.08
2019-03-25T21:28:49.177Z,2.09
2019-03-25T21:31:17.778Z,2.04
2019-03-25T21:33:45.965Z,2.07
2019-03-25T21:36:15.223Z,2.09
2019-03-25T21:38:44.038Z,2.05
2019-03-25T21:41:18.638Z,2.04
2019-03-25T21:43:46.687Z,2.01
2019-03-25T21:46:14.759Z,2.00
2019-03-25T21:48:43.098Z,1.97
2019-03-25T21:51:11.809Z,1.95
2019-03-25T21:53:40.224Z,1.94
2019-03-25T21:56:08.386Z,1.82
2019-03-25T21:58:36.691Z,1.83
2019-03-25T22:01:06.116Z,1.77
2019-03-25T22:03:35.542Z,1.74
2019-03-25T22:06:07.510Z,1.63
2019-03-25T22:08:37.472Z,1.57
2019-03-25T22:11:06.096Z,1.54
2019-03-25T22:13:35.534Z,1.70
2019-03-25T22:16:03.674Z,1.66
2019-03-25T22:18:32.205Z,1.68
2019-03-25T22:21:01.000Z,1.70
2019-03-25T22:23:28.822Z,1.73
2019-03-25T22:25:57.543Z,1.64
2019-03-25T22:28:26.708Z,1.70
2019-03-25T22:30:54.876Z,1.61
2019-03-25T22:33:26.000Z,1.55
2019-03-25T22:35:53.437Z,1.43
2019-03-25T22:38:21.228Z,1.32
2019-03-25T22:40:49.710Z,1.30
2019-03-25T22:43:18.740Z,1.08
2019-03-25T22:45:47.634Z,0.94
2019-03-25T22:48:16.379Z,1.00
2019-03-25T22:50:45.540Z,0.78
2019-03-25T22:53:16.052Z,0.79
2019-03-25T22:55:44.222Z,0.73
2019-03-25T22:58:12.089Z,0.67
2019-03-25T23:00:47.131Z,0.62
2019-03-25T23:03:15.698Z,0.55
2019-03-25T23:05:44.205Z,0.54
2019-03-25T23:08:12.953Z,0.54
2019-03-25T23:10:40.869Z,0.49
2019-03-25T23:13:09.261Z,0.33
2019-03-25T23:15:36.995Z,0.22
2019-03-25T23:18:05.820Z,0.24
2019-03-25T23:20:33.923Z,0.17
2019-03-25T23:23:02.134Z,0.20
2019-03-25T23:25:30.064Z,0.34
2019-03-25T23:27:57.935Z,0.34
2019-03-25T23:30:26.836Z,0.32
2019-03-25T23:32:55.502Z,0.40
2019-03-25T23:35:23.674Z,0.24
2019-03-25T23:37:51.483Z,0.33
2019-03-25T23:40:19.948Z,0.17
2019-03-25T23:42:48.072Z,0.04
2019-03-25T23:45:15.840Z,0.06
2019-03-25T23:47:44.887Z,0.04
2019-03-25T23:50:12.792Z,0.07
2019-03-25T23:52:41.147Z,0.06
2019-03-25T23:55:09.174Z,0.13
2019-03-25T23:57:37.580Z,0.11
